Cleo, Mississippi
Current Conditions -  °F | °C
As of 7:15 PM on Saturday 22 Nov 2014 (Local Time) from KPIB Reporting Station
Overcast Overcast  
Wind Chill: 63°   Ceiling: 2200
Heat Index: 63°   Visibility: 10mi
Dew Point: 54°   Wind: 6mph
Humidity: 72%   Direction: 120°ESE
Pressure: 30.08"   Gusts: NA
Location:  31.6875°N, 89.1116°W
Report Text: KPIB 230115Z AUTO 12005KT 10SM BKN022 OVC029 17/12 A3008 RMK AO1
Loading
Personal Weather Stations






























Interactive Weather Map New forecast layout! Learn more

10-Day Weather Forecast

Advertisements
Track Severe Weather on mobile